createdAt,value
2022-12-08T00:01:34.374Z,42.18
2022-12-08T00:04:04.054Z,41.97
2022-12-08T00:06:58.546Z,41.58
2022-12-08T00:09:38.220Z,41.25
2022-12-08T00:12:10.127Z,40.66
2022-12-08T00:14:46.205Z,40.44
2022-12-08T00:17:15.609Z,39.19
2022-12-08T00:19:43.776Z,37.77
2022-12-08T00:22:12.364Z,37.31
2022-12-08T00:24:43.397Z,36.90
2022-12-08T00:27:13.314Z,36.68
2022-12-08T00:29:39.742Z,36.93
2022-12-08T00:32:06.642Z,37.26
2022-12-08T00:34:33.814Z,36.95
2022-12-08T00:37:01.044Z,37.31
2022-12-08T00:39:27.578Z,37.35
2022-12-08T00:42:12.589Z,37.53
2022-12-08T00:44:44.307Z,38.51
2022-12-08T00:47:12.387Z,38.13
2022-12-08T00:49:38.819Z,37.23
2022-12-08T00:52:07.875Z,36.26
2022-12-08T00:54:34.341Z,35.43
2022-12-08T00:57:00.856Z,35.32
2022-12-08T00:59:27.255Z,34.64
2022-12-08T01:01:53.642Z,34.83
2022-12-08T01:04:21.134Z,34.51
2022-12-08T01:06:48.116Z,34.49
2022-12-08T01:09:17.287Z,35.00
2022-12-08T01:11:44.966Z,34.98
2022-12-08T01:14:12.775Z,34.54
2022-12-08T01:16:40.835Z,34.38
2022-12-08T01:19:07.550Z,34.19
2022-12-08T01:21:33.927Z,35.48
2022-12-08T01:24:00.784Z,36.57
2022-12-08T01:26:27.350Z,35.53
2022-12-08T01:28:53.927Z,34.55
2022-12-08T01:31:22.783Z,34.20
2022-12-08T01:33:49.741Z,33.89
2022-12-08T01:36:29.144Z,33.38
2022-12-08T01:39:01.483Z,33.02
2022-12-08T01:41:32.252Z,30.70
2022-12-08T01:44:07.651Z,30.35
2022-12-08T01:46:37.545Z,33.23
2022-12-08T01:49:19.106Z,35.71
2022-12-08T01:52:26.518Z,37.26
2022-12-08T01:55:05.432Z,38.95
2022-12-08T01:57:48.119Z,42.09
2022-12-08T02:00:18.922Z,43.46
2022-12-08T02:03:00.362Z,43.99
2022-12-08T02:05:32.765Z,44.67
2022-12-08T02:08:06.171Z,56.45
2022-12-08T02:10:38.401Z,59.04
2022-12-08T02:13:11.758Z,50.11
2022-12-08T02:15:59.653Z,45.15
2022-12-08T02:19:29.306Z,42.08
2022-12-08T02:22:43.988Z,39.13
2022-12-08T02:25:10.286Z,37.05
2022-12-08T02:28:14.996Z,35.65
2022-12-08T02:31:07.702Z,35.24
2022-12-08T02:34:06.616Z,34.99
2022-12-08T02:36:52.220Z,34.80
2022-12-08T02:39:52.504Z,32.01
2022-12-08T02:42:44.357Z,33.46
2022-12-08T02:45:58.503Z,38.39
2022-12-08T02:48:28.315Z,44.95
2022-12-08T02:50:55.913Z,44.61
2022-12-08T02:53:22.446Z,44.74
2022-12-08T02:56:36.265Z,45.43
2022-12-08T02:59:47.081Z,62.36
2022-12-08T03:02:56.429Z,54.76
2022-12-08T03:05:31.977Z,47.06
2022-12-08T03:08:15.349Z,43.00
2022-12-08T03:11:01.059Z,40.42
2022-12-08T03:13:40.973Z,37.94
2022-12-08T03:16:13.753Z,36.66
2022-12-08T03:18:48.255Z,35.89
2022-12-08T03:21:18.775Z,34.81
2022-12-08T03:23:50.280Z,34.02
2022-12-08T03:26:30.820Z,33.60
2022-12-08T03:28:58.171Z,31.49
2022-12-08T03:31:32.270Z,31.37
2022-12-08T03:34:02.327Z,32.94
2022-12-08T03:36:28.777Z,35.82
2022-12-08T03:38:55.279Z,38.77
2022-12-08T03:41:22.999Z,40.51
2022-12-08T03:43:54.630Z,41.45
2022-12-08T03:48:52.384Z,42.67
2022-12-08T03:51:20.418Z,44.15
2022-12-08T03:53:48.274Z,44.94
2022-12-08T03:56:33.956Z,57.49
2022-12-08T03:59:00.735Z,55.95
2022-12-08T04:01:27.694Z,49.49
2022-12-08T04:03:54.164Z,46.44
2022-12-08T04:06:22.183Z,43.99
2022-12-08T04:08:50.418Z,42.14
2022-12-08T04:11:18.777Z,41.46
2022-12-08T04:13:46.154Z,41.12
2022-12-08T04:16:17.434Z,40.45
2022-12-08T04:18:44.642Z,40.79
2022-12-08T04:21:11.594Z,40.55
2022-12-08T04:23:38.195Z,40.27
2022-12-08T04:26:05.506Z,39.81
2022-12-08T04:28:32.533Z,38.86
2022-12-08T04:30:59.564Z,37.88
2022-12-08T04:33:26.063Z,36.87
2022-12-08T04:35:52.684Z,36.22
2022-12-08T04:38:19.295Z,35.31
2022-12-08T04:40:46.198Z,34.66
2022-12-08T04:43:12.770Z,34.12
2022-12-08T04:45:41.223Z,33.54
2022-12-08T04:48:09.130Z,33.01
2022-12-08T04:50:38.471Z,32.76
2022-12-08T04:53:04.858Z,31.39
2022-12-08T04:55:31.201Z,29.02
2022-12-08T04:57:57.667Z,31.73
2022-12-08T05:00:24.305Z,35.92
2022-12-08T05:02:51.384Z,38.31
2022-12-08T05:05:17.858Z,40.55
2022-12-08T05:07:44.264Z,40.76
2022-12-08T05:10:10.785Z,42.98
2022-12-08T05:12:37.443Z,43.22
2022-12-08T05:15:04.656Z,45.36
2022-12-08T05:17:31.039Z,48.80
2022-12-08T05:19:58.123Z,62.29
2022-12-08T05:22:24.763Z,57.93
2022-12-08T05:24:51.169Z,49.96
2022-12-08T05:27:17.781Z,44.63
2022-12-08T05:29:44.137Z,41.56
2022-12-08T05:32:10.958Z,39.29
2022-12-08T05:34:37.528Z,38.09
2022-12-08T05:37:03.954Z,36.59
2022-12-08T05:39:30.642Z,35.48
2022-12-08T05:41:59.245Z,32.99
2022-12-08T05:44:26.117Z,32.67
2022-12-08T05:46:52.510Z,35.18
2022-12-08T05:49:18.904Z,36.86
2022-12-08T05:51:45.325Z,38.60
2022-12-08T05:54:11.805Z,41.76
2022-12-08T05:56:38.199Z,42.83
2022-12-08T05:59:06.896Z,44.07
2022-12-08T06:01:34.063Z,48.35
2022-12-08T06:04:03.990Z,49.92
2022-12-08T06:06:31.471Z,55.70
2022-12-08T06:08:58.009Z,64.07
2022-12-08T06:11:30.585Z,56.68
2022-12-08T06:13:58.906Z,50.72
2022-12-08T06:16:27.972Z,48.53
2022-12-08T06:18:55.693Z,45.65
2022-12-08T06:21:25.773Z,44.54
2022-12-08T06:23:53.761Z,43.65
2022-12-08T06:26:21.776Z,42.67
2022-12-08T06:28:48.847Z,41.60
2022-12-08T06:31:24.091Z,40.90
2022-12-08T06:33:54.272Z,39.57
2022-12-08T06:36:25.694Z,38.48
2022-12-08T06:38:52.292Z,37.76
2022-12-08T06:41:18.775Z,36.61
2022-12-08T06:43:45.852Z,36.22
2022-12-08T06:46:18.328Z,35.81
2022-12-08T06:48:46.259Z,34.08
2022-12-08T06:51:17.502Z,35.93
2022-12-08T06:53:46.118Z,36.10
2022-12-08T06:56:15.353Z,37.67
2022-12-08T06:58:46.163Z,41.83
2022-12-08T07:01:17.332Z,44.14
2022-12-08T07:03:44.088Z,49.09
2022-12-08T07:06:19.912Z,51.36
2022-12-08T07:08:46.493Z,56.41
2022-12-08T07:11:18.088Z,62.70
2022-12-08T07:13:48.429Z,65.28
2022-12-08T07:16:14.929Z,55.24
2022-12-08T07:18:42.392Z,51.25
2022-12-08T07:21:14.205Z,49.01
2022-12-08T07:23:42.338Z,46.21
2022-12-08T07:26:12.630Z,44.64
2022-12-08T07:28:41.543Z,43.02
2022-12-08T07:31:18.932Z,41.56
2022-12-08T07:33:46.695Z,40.64
2022-12-08T07:36:13.350Z,39.60
2022-12-08T07:38:39.882Z,39.27
2022-12-08T07:41:12.924Z,37.79
2022-12-08T07:43:40.298Z,35.07
2022-12-08T07:46:06.988Z,36.79
2022-12-08T07:48:33.660Z,39.25
2022-12-08T07:51:05.335Z,41.86
2022-12-08T07:53:32.172Z,43.10
2022-12-08T07:55:59.020Z,45.37
2022-12-08T07:58:27.062Z,46.40
2022-12-08T08:00:53.681Z,50.83
2022-12-08T08:03:21.546Z,52.48
2022-12-08T08:05:49.430Z,55.33
2022-12-08T08:08:17.036Z,52.99
2022-12-08T08:10:44.627Z,56.84
2022-12-08T08:13:11.938Z,69.50
2022-12-08T08:15:39.803Z,66.46
2022-12-08T08:18:07.093Z,58.19
2022-12-08T08:20:33.706Z,53.19
2022-12-08T08:23:00.153Z,49.60
2022-12-08T08:25:26.756Z,47.03
2022-12-08T08:27:54.210Z,44.89
2022-12-08T08:30:21.250Z,43.25
2022-12-08T08:32:49.880Z,43.03
2022-12-08T08:35:16.656Z,42.09
2022-12-08T08:37:48.593Z,41.99
2022-12-08T08:40:17.844Z,42.39
2022-12-08T08:42:44.261Z,42.43
2022-12-08T08:45:11.102Z,43.32
2022-12-08T08:47:37.557Z,42.64
2022-12-08T08:50:05.176Z,42.84
2022-12-08T08:52:32.249Z,42.26
2022-12-08T08:54:58.682Z,41.55
2022-12-08T08:57:26.088Z,41.30
2022-12-08T08:59:54.006Z,40.65
2022-12-08T09:02:21.321Z,40.38
2022-12-08T09:04:48.574Z,40.11
2022-12-08T09:07:16.589Z,40.02
2022-12-08T09:09:43.643Z,39.56
2022-12-08T09:12:12.165Z,39.03
2022-12-08T09:14:39.391Z,39.56
2022-12-08T09:17:07.964Z,39.90
2022-12-08T09:19:34.417Z,39.90
2022-12-08T09:22:01.346Z,39.58
2022-12-08T09:24:27.868Z,38.50
2022-12-08T09:26:54.285Z,36.19
2022-12-08T09:29:21.947Z,37.79
2022-12-08T09:31:48.495Z,39.55
2022-12-08T09:34:15.069Z,41.21
2022-12-08T09:36:41.537Z,43.28
2022-12-08T09:39:08.510Z,47.11
2022-12-08T09:41:48.021Z,52.21
2022-12-08T09:44:39.592Z,53.00
2022-12-08T09:47:18.604Z,53.86
2022-12-08T09:50:13.543Z,53.29
2022-12-08T09:53:22.311Z,51.10
2022-12-08T09:55:58.414Z,65.93
2022-12-08T09:58:51.230Z,66.35
2022-12-08T10:01:20.609Z,54.99
2022-12-08T10:03:48.300Z,50.00
2022-12-08T10:06:34.751Z,46.99
2022-12-08T10:09:25.800Z,46.17
2022-12-08T10:12:20.713Z,43.73
2022-12-08T10:15:37.146Z,41.87
2022-12-08T10:18:22.670Z,40.09
2022-12-08T10:20:50.803Z,37.84
2022-12-08T10:23:32.550Z,34.94
2022-12-08T10:26:07.579Z,37.10
2022-12-08T10:28:36.714Z,39.80
2022-12-08T10:31:05.493Z,41.44
2022-12-08T10:33:33.569Z,43.29
2022-12-08T10:36:04.411Z,45.12
2022-12-08T10:38:32.106Z,46.10
2022-12-08T10:41:11.171Z,47.40
2022-12-08T10:44:00.816Z,48.20
2022-12-08T10:46:29.556Z,48.83
2022-12-08T10:49:05.067Z,49.82
2022-12-08T10:51:34.185Z,50.45
2022-12-08T10:54:00.977Z,51.83
2022-12-08T10:56:30.929Z,52.84
2022-12-08T10:59:16.957Z,53.10
2022-12-08T11:01:53.632Z,56.78
2022-12-08T11:04:36.302Z,71.32
2022-12-08T11:07:06.978Z,63.82
2022-12-08T11:09:48.016Z,55.64
2022-12-08T11:12:21.067Z,50.62
2022-12-08T11:15:01.688Z,47.20
2022-12-08T11:17:40.051Z,44.74
2022-12-08T11:20:10.220Z,43.40
2022-12-08T11:22:50.165Z,41.94
2022-12-08T11:25:27.250Z,41.04
2022-12-08T11:27:58.774Z,38.65
2022-12-08T11:30:32.378Z,35.46
2022-12-08T11:33:27.191Z,38.01
2022-12-08T11:36:04.122Z,40.96
2022-12-08T11:38:33.137Z,44.69
2022-12-08T11:41:16.467Z,44.55
2022-12-08T11:44:05.374Z,46.57
2022-12-08T11:46:42.358Z,51.03
2022-12-08T11:49:18.509Z,53.76
2022-12-08T11:51:59.446Z,57.08
2022-12-08T11:54:33.608Z,61.52
2022-12-08T11:57:12.435Z,67.83
2022-12-08T11:59:48.839Z,61.06
2022-12-08T12:02:29.288Z,54.11
2022-12-08T12:05:20.153Z,55.82
2022-12-08T12:08:00.870Z,58.16
2022-12-08T12:10:58.359Z,60.67
2022-12-08T12:13:41.733Z,65.51
2022-12-08T12:16:25.860Z,67.01
2022-12-08T12:19:01.846Z,61.87
2022-12-08T12:21:43.575Z,51.45
2022-12-08T12:24:25.507Z,48.14
2022-12-08T12:27:06.193Z,51.45
2022-12-08T12:29:37.606Z,54.57
2022-12-08T12:32:08.587Z,54.99
2022-12-08T12:35:04.949Z,54.63
2022-12-08T12:37:42.512Z,57.37
2022-12-08T12:40:19.950Z,58.19
2022-12-08T12:42:55.654Z,60.05
2022-12-08T12:45:30.158Z,66.27
2022-12-08T12:47:57.376Z,70.12
2022-12-08T12:50:32.975Z,63.10
2022-12-08T12:53:19.698Z,54.36
2022-12-08T12:55:59.223Z,53.47
2022-12-08T12:58:31.611Z,55.08
2022-12-08T13:01:10.482Z,54.71
2022-12-08T13:03:40.749Z,58.04
2022-12-08T13:06:14.623Z,59.38
2022-12-08T13:08:55.657Z,59.96
2022-12-08T13:11:24.271Z,62.20
2022-12-08T13:14:03.301Z,69.76
2022-12-08T13:16:37.952Z,73.05
2022-12-08T13:19:13.286Z,60.77
2022-12-08T13:21:40.705Z,50.08
2022-12-08T13:24:19.065Z,49.36
2022-12-08T13:27:05.382Z,50.33
2022-12-08T13:29:34.165Z,50.39
2022-12-08T13:33:16.241Z,56.53
2022-12-08T13:35:30.204Z,57.97
2022-12-08T13:38:00.636Z,61.24
2022-12-08T13:40:32.217Z,66.44
2022-12-08T13:43:11.456Z,66.51
2022-12-08T13:53:35.022Z,51.69
2022-12-08T13:57:35.059Z,57.66
2022-12-08T14:00:19.408Z,62.46
2022-12-08T14:02:55.811Z,67.26
2022-12-08T14:05:41.150Z,66.61
2022-12-08T14:09:00.094Z,55.79
2022-12-08T14:11:34.695Z,52.61
2022-12-08T14:14:06.446Z,56.11
2022-12-08T14:16:49.419Z,60.12
2022-12-08T14:19:24.409Z,63.51
2022-12-08T14:22:05.699Z,68.96
2022-12-08T14:24:34.807Z,61.29
2022-12-08T14:27:06.822Z,53.84
2022-12-08T14:29:50.478Z,52.58
2022-12-08T14:32:28.539Z,54.56
2022-12-08T14:35:08.649Z,57.65
2022-12-08T14:37:42.927Z,58.73
2022-12-08T14:40:23.554Z,57.97
2022-12-08T14:43:04.637Z,62.30
2022-12-08T14:45:34.868Z,71.82
2022-12-08T14:48:38.717Z,71.50
2022-12-08T14:51:20.529Z,64.43
2022-12-08T14:54:04.945Z,54.50
2022-12-08T14:56:40.411Z,53.78
2022-12-08T14:59:37.178Z,52.21
2022-12-08T15:02:18.755Z,57.57
2022-12-08T15:04:54.082Z,59.14
2022-12-08T15:07:25.510Z,60.67
2022-12-08T15:10:37.626Z,59.83
2022-12-08T15:13:10.111Z,67.51
2022-12-08T15:15:57.403Z,72.95
2022-12-08T15:18:38.343Z,68.92
2022-12-08T15:21:12.176Z,60.87
2022-12-08T15:23:49.358Z,54.66
2022-12-08T15:26:24.156Z,47.70
2022-12-08T15:28:51.128Z,49.14
2022-12-08T15:31:18.507Z,51.47
2022-12-08T15:33:45.475Z,52.92
2022-12-08T15:36:11.945Z,54.64
2022-12-08T15:38:38.716Z,55.26
2022-12-08T15:41:08.056Z,57.39
2022-12-08T15:43:38.008Z,60.61
2022-12-08T15:46:04.840Z,67.33
2022-12-08T15:48:33.931Z,71.50
2022-12-08T15:51:00.655Z,67.13
2022-12-08T15:53:29.777Z,55.72
2022-12-08T15:58:55.730Z,51.71
2022-12-08T16:01:23.725Z,51.82
2022-12-08T16:09:35.996Z,55.85
2022-12-08T16:12:23.342Z,56.35
2022-12-08T16:17:38.253Z,60.35
2022-12-08T16:20:14.663Z,69.11
2022-12-08T16:23:08.063Z,74.68
2022-12-08T16:25:41.011Z,69.74
2022-12-08T16:28:45.100Z,54.84
2022-12-08T16:30:59.623Z,48.74
2022-12-08T16:33:26.279Z,49.84
2022-12-08T16:35:52.712Z,54.56
2022-12-08T16:38:19.111Z,60.27
2022-12-08T16:41:06.312Z,58.06
2022-12-08T16:43:35.393Z,57.33
2022-12-08T16:46:02.558Z,56.97
2022-12-08T16:48:29.403Z,60.52
2022-12-08T16:50:56.403Z,71.07
2022-12-08T16:53:23.619Z,73.67
2022-12-08T16:55:50.607Z,61.43
2022-12-08T16:58:18.043Z,51.71
2022-12-08T17:00:44.622Z,49.91
2022-12-08T17:03:14.888Z,52.00
2022-12-08T17:05:42.511Z,52.90
2022-12-08T17:08:09.057Z,55.14
2022-12-08T17:10:39.238Z,61.36
2022-12-08T17:13:06.758Z,65.34
2022-12-08T17:15:33.386Z,67.76
2022-12-08T17:18:00.244Z,62.41
2022-12-08T17:20:27.971Z,53.02
2022-12-08T17:22:57.892Z,51.25
2022-12-08T17:25:26.779Z,54.23
2022-12-08T17:27:55.681Z,55.85
2022-12-08T17:30:22.618Z,54.62
2022-12-08T17:32:49.121Z,58.73
2022-12-08T17:35:15.661Z,58.47
2022-12-08T17:37:43.358Z,63.07
2022-12-08T17:40:10.608Z,66.64
2022-12-08T17:42:38.165Z,63.40
2022-12-08T17:45:07.536Z,53.59
2022-12-08T17:47:34.528Z,50.57
2022-12-08T17:50:01.420Z,52.75
2022-12-08T17:52:27.830Z,55.25
2022-12-08T17:54:54.593Z,56.18
2022-12-08T17:57:21.110Z,58.53
2022-12-08T17:59:47.594Z,59.98
2022-12-08T18:02:17.059Z,64.56
2022-12-08T18:04:43.866Z,66.42
2022-12-08T18:07:11.104Z,64.27
2022-12-08T18:09:37.706Z,52.60
2022-12-08T18:12:04.542Z,49.89
2022-12-08T18:14:31.142Z,51.29
2022-12-08T18:16:57.755Z,51.05
2022-12-08T18:19:25.661Z,55.36
2022-12-08T18:21:53.120Z,58.09
2022-12-08T18:24:23.228Z,58.39
2022-12-08T18:26:54.592Z,60.97
2022-12-08T18:29:22.403Z,61.96
2022-12-08T18:31:50.749Z,70.92
2022-12-08T18:34:20.414Z,68.61
2022-12-08T18:36:47.738Z,59.22
2022-12-08T18:39:28.346Z,52.08
2022-12-08T18:41:57.688Z,53.95
2022-12-08T18:44:24.850Z,55.76
2022-12-08T18:46:51.274Z,59.68
2022-12-08T18:49:19.313Z,56.92
2022-12-08T18:51:46.841Z,60.20
2022-12-08T18:54:13.677Z,64.19
2022-12-08T18:56:40.259Z,71.34
2022-12-08T18:59:11.299Z,66.36
2022-12-08T19:01:39.716Z,62.51
2022-12-08T19:06:56.650Z,51.64
2022-12-08T19:09:26.001Z,54.31
2022-12-08T19:11:52.467Z,57.77
2022-12-08T19:14:22.701Z,58.87
2022-12-08T19:16:54.140Z,60.41
2022-12-08T19:19:20.988Z,64.13
2022-12-08T19:21:47.428Z,67.02
2022-12-08T19:24:13.948Z,65.18
2022-12-08T19:26:42.291Z,61.00
2022-12-08T19:29:10.745Z,52.64
2022-12-08T19:31:37.687Z,49.89
2022-12-08T19:34:08.551Z,53.66
2022-12-08T19:36:41.391Z,53.37
2022-12-08T19:39:47.429Z,54.24
